createdAt,value
2022-09-16T00:01:18.268Z,1.69
2022-09-16T00:03:44.753Z,1.71
2022-09-16T00:06:11.109Z,1.63
2022-09-16T00:08:37.437Z,1.77
2022-09-16T00:11:03.771Z,1.83
2022-09-16T00:13:30.114Z,1.89
2022-09-16T00:15:56.507Z,1.84
2022-09-16T00:18:22.878Z,1.66
2022-09-16T00:20:49.211Z,1.86
2022-09-16T00:23:15.550Z,1.97
2022-09-16T00:25:41.880Z,1.97
2022-09-16T00:28:08.213Z,1.89
2022-09-16T00:30:34.545Z,1.87
2022-09-16T00:33:00.873Z,1.94
2022-09-16T00:35:27.201Z,1.89
2022-09-16T00:37:53.539Z,1.96
2022-09-16T00:40:19.922Z,2.19
2022-09-16T00:42:46.271Z,1.95
2022-09-16T00:45:12.593Z,1.82
2022-09-16T00:47:38.926Z,2.01
2022-09-16T00:50:05.282Z,1.96
2022-09-16T00:52:31.613Z,2.13
2022-09-16T00:54:57.962Z,2.16
2022-09-16T00:57:24.297Z,2.21
2022-09-16T00:59:50.628Z,2.06
2022-09-16T01:02:17.005Z,2.25
2022-09-16T01:04:43.411Z,2.21
2022-09-16T01:07:09.740Z,2.36
2022-09-16T01:09:36.074Z,1.98
2022-09-16T01:12:02.410Z,2.14
2022-09-16T01:14:28.742Z,2.10
2022-09-16T01:16:55.073Z,2.10
2022-09-16T01:19:21.411Z,2.22
2022-09-16T01:21:47.759Z,2.28
2022-09-16T01:24:14.089Z,2.27
2022-09-16T01:26:40.428Z,2.34
2022-09-16T01:29:06.762Z,2.08
2022-09-16T01:31:33.152Z,2.22
2022-09-16T01:33:59.532Z,2.44
2022-09-16T01:36:25.856Z,2.25
2022-09-16T01:38:52.218Z,2.27
2022-09-16T01:41:18.616Z,2.24
2022-09-16T01:43:44.961Z,2.36
2022-09-16T01:46:11.479Z,2.26
2022-09-16T01:48:37.852Z,2.20
2022-09-16T01:51:04.186Z,2.28
2022-09-16T01:53:30.512Z,2.34
2022-09-16T01:55:56.853Z,2.34
2022-09-16T01:58:23.179Z,2.53
2022-09-16T02:00:49.505Z,2.40
2022-09-16T02:03:15.838Z,2.59
2022-09-16T02:05:42.164Z,2.22
2022-09-16T02:08:08.493Z,2.26
2022-09-16T02:10:34.841Z,2.25
2022-09-16T02:13:01.188Z,2.50
2022-09-16T02:15:27.503Z,2.40
2022-09-16T02:17:53.832Z,2.43
2022-09-16T02:20:20.161Z,2.54
2022-09-16T02:22:46.476Z,2.54
2022-09-16T02:25:12.796Z,2.45
2022-09-16T02:27:39.131Z,2.33
2022-09-16T02:30:05.484Z,2.46
2022-09-16T02:32:31.815Z,2.56
2022-09-16T02:34:58.157Z,2.42
2022-09-16T02:37:24.494Z,2.68
2022-09-16T02:39:50.853Z,2.34
2022-09-16T02:42:17.210Z,2.32
2022-09-16T02:44:43.525Z,2.55
2022-09-16T02:47:09.862Z,2.50
2022-09-16T02:49:36.203Z,2.49
2022-09-16T02:52:02.545Z,2.43
2022-09-16T02:54:28.881Z,2.34
2022-09-16T02:56:55.214Z,2.45
2022-09-16T02:59:21.549Z,2.30
2022-09-16T03:01:47.926Z,2.41
2022-09-16T03:04:14.267Z,2.27
2022-09-16T03:06:40.596Z,2.39
2022-09-16T03:09:06.925Z,2.28
2022-09-16T03:11:33.241Z,2.25
2022-09-16T03:13:59.569Z,2.22
2022-09-16T03:16:25.969Z,2.15
2022-09-16T03:18:52.337Z,2.32
2022-09-16T03:21:18.667Z,2.28
2022-09-16T03:23:45.150Z,2.37
2022-09-16T03:26:11.528Z,1.97
2022-09-16T03:28:37.860Z,2.11
2022-09-16T03:31:04.263Z,2.06
2022-09-16T03:33:30.647Z,2.15
2022-09-16T03:35:56.978Z,2.27
2022-09-16T03:38:23.317Z,2.14
2022-09-16T03:40:49.639Z,1.87
2022-09-16T03:43:15.965Z,2.22
2022-09-16T03:45:42.308Z,2.17
2022-09-16T03:48:08.629Z,2.02
2022-09-16T03:50:34.958Z,1.99
2022-09-16T03:53:01.293Z,1.94
2022-09-16T03:55:27.661Z,2.01
2022-09-16T03:57:53.994Z,2.18
2022-09-16T04:00:20.311Z,2.08
2022-09-16T04:02:46.706Z,2.22
2022-09-16T04:05:13.090Z,2.25
2022-09-16T04:07:39.403Z,2.14
2022-09-16T04:10:05.730Z,2.16
2022-09-16T04:12:32.043Z,2.11
2022-09-16T04:14:59.516Z,2.13
2022-09-16T04:17:27.164Z,2.23
2022-09-16T04:19:53.493Z,2.19
2022-09-16T04:22:19.820Z,2.13
2022-09-16T04:24:46.145Z,2.40
2022-09-16T04:27:12.464Z,2.10
2022-09-16T04:29:38.804Z,2.31
2022-09-16T04:32:05.134Z,2.15
2022-09-16T04:34:31.453Z,2.18
2022-09-16T04:36:57.780Z,2.16
2022-09-16T04:39:24.110Z,2.21
2022-09-16T04:41:50.438Z,2.35
2022-09-16T04:44:16.802Z,2.34
2022-09-16T04:46:43.222Z,2.57
2022-09-16T04:49:09.608Z,3.19
2022-09-16T04:51:35.936Z,2.76
2022-09-16T04:54:02.272Z,2.50
2022-09-16T04:56:28.596Z,5.45
2022-09-16T04:58:54.934Z,18.77
2022-09-16T05:01:21.305Z,14.11
2022-09-16T05:03:47.679Z,11.86
2022-09-16T05:06:18.354Z,9.64
2022-09-16T05:08:46.772Z,10.15
2022-09-16T05:11:13.145Z,14.01
2022-09-16T05:13:39.506Z,16.04
2022-09-16T05:16:05.902Z,17.46
2022-09-16T05:18:32.280Z,17.99
2022-09-16T05:20:58.615Z,16.28
2022-09-16T05:23:24.933Z,16.21
2022-09-16T05:25:51.267Z,14.81
2022-09-16T05:28:17.615Z,13.93
2022-09-16T05:30:44.022Z,13.17
2022-09-16T05:33:10.387Z,12.27
2022-09-16T05:35:36.717Z,12.47
2022-09-16T05:38:03.044Z,11.62
2022-09-16T05:40:29.459Z,11.31
2022-09-16T05:42:55.837Z,11.15
2022-09-16T05:45:26.611Z,9.80
2022-09-16T05:47:55.148Z,9.60
2022-09-16T05:50:21.477Z,9.23
2022-09-16T05:52:47.810Z,8.93
2022-09-16T05:55:14.147Z,8.54
2022-09-16T05:57:40.484Z,8.20
2022-09-16T06:00:06.826Z,7.89
2022-09-16T06:02:33.206Z,7.79
2022-09-16T06:04:59.580Z,7.72
2022-09-16T06:07:25.903Z,7.65
2022-09-16T06:09:52.237Z,7.24
2022-09-16T06:12:18.555Z,7.35
2022-09-16T06:14:44.885Z,7.76
2022-09-16T06:17:11.212Z,6.97
2022-09-16T06:19:37.527Z,6.64
2022-09-16T06:22:03.852Z,6.77
2022-09-16T06:24:30.177Z,6.43
2022-09-16T06:26:56.508Z,6.61
2022-09-16T06:29:22.841Z,6.70
2022-09-16T06:31:49.173Z,6.26
2022-09-16T06:34:15.499Z,6.10
2022-09-16T06:36:45.132Z,5.82
2022-09-16T06:39:12.008Z,5.89
2022-09-16T06:41:38.330Z,6.10
2022-09-16T06:44:04.659Z,6.04
2022-09-16T06:46:31.017Z,5.87
2022-09-16T06:48:59.313Z,5.74
2022-09-16T06:51:29.237Z,5.85
2022-09-16T06:53:55.566Z,5.70
2022-09-16T06:56:21.896Z,5.60
2022-09-16T06:58:48.239Z,5.64
2022-09-16T07:01:14.629Z,5.42
2022-09-16T07:03:41.215Z,5.06
2022-09-16T07:06:07.544Z,5.43
2022-09-16T07:08:33.870Z,5.35
2022-09-16T07:11:00.200Z,5.31
2022-09-16T07:13:26.519Z,5.50
2022-09-16T07:16:12.320Z,5.36
2022-09-16T07:18:39.144Z,5.26
2022-09-16T07:21:05.476Z,5.36
2022-09-16T07:23:31.786Z,5.34
2022-09-16T07:25:58.111Z,5.36
2022-09-16T07:28:24.434Z,5.35
2022-09-16T07:30:50.852Z,4.98
2022-09-16T07:33:17.200Z,5.07
2022-09-16T07:35:43.524Z,5.04
2022-09-16T07:38:09.857Z,5.04
2022-09-16T07:40:36.198Z,5.02
2022-09-16T07:43:02.577Z,5.02
2022-09-16T07:45:28.950Z,5.33
2022-09-16T07:47:55.292Z,5.05
2022-09-16T07:50:21.617Z,5.16
2022-09-16T07:52:47.940Z,4.89
2022-09-16T07:55:14.282Z,5.06
2022-09-16T07:57:40.617Z,5.15
2022-09-16T08:00:06.947Z,4.75
2022-09-16T08:02:33.341Z,4.76
2022-09-16T08:04:59.709Z,4.72
2022-09-16T08:07:26.037Z,4.94
2022-09-16T08:09:53.777Z,4.91
2022-09-16T08:12:20.426Z,5.15
2022-09-16T08:14:46.743Z,4.59
2022-09-16T08:17:13.079Z,4.65
2022-09-16T08:19:39.435Z,4.58
2022-09-16T08:22:05.778Z,4.70
2022-09-16T08:24:32.092Z,4.53
2022-09-16T08:26:58.410Z,4.96
2022-09-16T08:29:24.739Z,4.67
2022-09-16T08:31:51.096Z,4.99
2022-09-16T08:34:17.449Z,4.76
2022-09-16T08:36:43.804Z,4.84
2022-09-16T08:39:10.137Z,4.69
2022-09-16T08:41:36.464Z,4.76
2022-09-16T08:44:02.798Z,4.42
2022-09-16T08:46:29.188Z,4.54
2022-09-16T08:48:55.663Z,4.59
2022-09-16T08:51:22.080Z,4.88
2022-09-16T08:53:48.445Z,4.68
2022-09-16T08:56:14.811Z,4.77
2022-09-16T08:58:41.171Z,4.52
2022-09-16T09:01:07.601Z,4.51
2022-09-16T09:03:34.073Z,4.35
2022-09-16T09:06:00.444Z,4.65
2022-09-16T09:08:26.792Z,4.24
2022-09-16T09:10:53.169Z,4.10
2022-09-16T09:13:20.572Z,4.46
2022-09-16T09:15:47.559Z,4.31
2022-09-16T09:18:16.031Z,4.54
2022-09-16T09:20:42.644Z,4.53
2022-09-16T09:23:09.020Z,4.45
2022-09-16T09:25:35.379Z,4.40
2022-09-16T09:28:01.748Z,4.52
2022-09-16T09:30:28.108Z,4.63
2022-09-16T09:32:54.534Z,4.64
2022-09-16T09:35:20.978Z,4.51
2022-09-16T09:37:47.417Z,4.45
2022-09-16T09:40:13.874Z,4.64
2022-09-16T09:42:40.341Z,4.57
2022-09-16T09:45:06.753Z,4.63
2022-09-16T09:47:33.186Z,4.02
2022-09-16T09:49:59.540Z,4.16
2022-09-16T09:52:25.905Z,4.40
2022-09-16T09:54:52.270Z,4.41
2022-09-16T09:57:18.631Z,4.44
2022-09-16T09:59:45.003Z,4.71
2022-09-16T10:02:11.372Z,4.51
2022-09-16T10:04:37.754Z,4.58
2022-09-16T10:07:04.131Z,4.00
2022-09-16T10:09:30.505Z,4.48
2022-09-16T10:11:56.851Z,4.29
2022-09-16T10:14:23.213Z,4.46
2022-09-16T10:16:49.619Z,4.48
2022-09-16T10:19:16.019Z,4.24
2022-09-16T10:21:42.396Z,4.48
2022-09-16T10:24:08.760Z,4.28
2022-09-16T10:26:35.119Z,4.42
2022-09-16T10:29:01.489Z,4.50
2022-09-16T10:31:30.501Z,4.40
2022-09-16T10:34:00.023Z,4.54
2022-09-16T10:36:26.409Z,4.26
2022-09-16T10:38:52.777Z,4.30
2022-09-16T10:41:19.141Z,4.40
2022-09-16T10:43:45.492Z,4.46
2022-09-16T10:46:11.935Z,4.42
2022-09-16T10:48:38.332Z,4.49
2022-09-16T10:51:04.711Z,4.47
2022-09-16T10:53:31.142Z,4.50
2022-09-16T10:55:57.515Z,4.49
2022-09-16T10:58:23.885Z,4.27
2022-09-16T11:00:50.294Z,4.32
2022-09-16T11:03:16.720Z,4.52
2022-09-16T11:05:43.100Z,4.47
2022-09-16T11:08:09.467Z,4.21
2022-09-16T11:10:35.820Z,4.52
2022-09-16T11:13:02.181Z,4.45
2022-09-16T11:15:28.545Z,4.61
2022-09-16T11:17:54.906Z,4.36
2022-09-16T11:20:21.303Z,4.51
2022-09-16T11:22:47.676Z,4.67
2022-09-16T11:25:14.165Z,4.49
2022-09-16T11:27:40.530Z,4.31
2022-09-16T11:30:06.891Z,4.65
2022-09-16T11:32:33.293Z,4.70
2022-09-16T11:34:59.681Z,4.47
2022-09-16T11:37:26.045Z,4.56
2022-09-16T11:39:52.461Z,4.47
2022-09-16T11:42:18.859Z,4.70
2022-09-16T11:44:45.220Z,4.48
2022-09-16T11:47:11.612Z,4.48
2022-09-16T11:49:37.989Z,4.96
2022-09-16T11:52:04.354Z,4.75
2022-09-16T11:54:30.732Z,4.96
2022-09-16T11:56:57.095Z,4.67
2022-09-16T11:59:23.451Z,5.00
2022-09-16T12:01:49.900Z,4.68
2022-09-16T12:04:16.319Z,4.86
2022-09-16T12:06:42.676Z,4.89
2022-09-16T12:09:10.996Z,5.11
2022-09-16T12:11:37.548Z,4.87
2022-09-16T12:14:06.135Z,4.81
2022-09-16T12:16:32.781Z,5.03
2022-09-16T12:18:59.158Z,5.11
2022-09-16T12:21:25.520Z,5.06
2022-09-16T12:23:51.863Z,4.82
2022-09-16T12:26:18.224Z,4.72
2022-09-16T12:28:44.580Z,4.98
2022-09-16T12:31:10.971Z,5.01
2022-09-16T12:33:37.376Z,4.97
2022-09-16T12:36:03.730Z,4.90
2022-09-16T12:38:30.107Z,4.95
2022-09-16T12:40:56.492Z,4.92
2022-09-16T12:43:22.871Z,5.23
2022-09-16T12:45:49.232Z,5.09
2022-09-16T12:48:15.605Z,5.06
2022-09-16T12:50:41.958Z,5.03
2022-09-16T12:53:08.311Z,5.06
2022-09-16T12:55:34.683Z,5.17
2022-09-16T12:58:01.028Z,5.47
2022-09-16T13:00:27.458Z,5.08
2022-09-16T13:02:53.880Z,4.91
2022-09-16T13:05:20.281Z,5.12
2022-09-16T13:07:46.639Z,5.11
2022-09-16T13:10:13.000Z,5.02
2022-09-16T13:12:44.017Z,5.02
2022-09-16T13:15:10.968Z,5.17
2022-09-16T13:17:37.339Z,5.23
2022-09-16T13:20:03.705Z,4.96
2022-09-16T13:22:30.061Z,5.07
2022-09-16T13:24:56.431Z,4.93
2022-09-16T13:27:22.803Z,5.03
2022-09-16T13:29:49.175Z,5.13
2022-09-16T13:32:15.535Z,5.17
2022-09-16T13:34:41.921Z,5.17
2022-09-16T13:37:08.279Z,4.95
2022-09-16T13:39:34.649Z,4.84
2022-09-16T13:42:00.984Z,5.23
2022-09-16T13:44:27.317Z,5.09
2022-09-16T13:46:53.642Z,5.07
2022-09-16T13:49:19.980Z,4.99
2022-09-16T13:51:46.314Z,5.26
2022-09-16T13:54:12.646Z,5.05
2022-09-16T13:56:38.973Z,5.24
2022-09-16T13:59:05.303Z,5.23
2022-09-16T14:01:42.182Z,5.22
2022-09-16T14:04:17.915Z,5.23
2022-09-16T14:06:44.250Z,5.27
2022-09-16T14:09:10.576Z,5.25
2022-09-16T14:11:36.909Z,5.03
2022-09-16T14:14:05.715Z,5.25
2022-09-16T14:16:32.319Z,5.14
2022-09-16T14:18:58.644Z,5.18
2022-09-16T14:21:24.969Z,5.30
2022-09-16T14:23:51.301Z,5.16
2022-09-16T14:26:17.636Z,5.20
2022-09-16T14:28:43.974Z,5.11
2022-09-16T14:31:10.349Z,5.01
2022-09-16T14:33:36.692Z,5.40
2022-09-16T14:36:03.020Z,5.43
2022-09-16T14:38:44.876Z,5.31
2022-09-16T14:41:12.117Z,5.48
2022-09-16T14:43:38.431Z,5.29
2022-09-16T14:46:04.760Z,5.15
2022-09-16T14:48:31.094Z,5.33
2022-09-16T14:50:57.429Z,5.49
2022-09-16T14:53:26.852Z,5.52
2022-09-16T14:56:00.167Z,5.29
2022-09-16T14:58:26.492Z,5.34
2022-09-16T15:00:52.820Z,5.39
2022-09-16T15:03:19.149Z,5.39
2022-09-16T15:05:45.490Z,5.32
2022-09-16T15:08:14.443Z,5.38
2022-09-16T15:10:56.222Z,5.33
2022-09-16T15:13:22.601Z,5.47
2022-09-16T15:15:49.009Z,5.37
2022-09-16T15:18:15.363Z,5.17
2022-09-16T15:20:41.687Z,5.24
2022-09-16T15:23:12.706Z,5.35
2022-09-16T15:25:39.256Z,5.29
2022-09-16T15:28:05.585Z,5.42
2022-09-16T15:30:31.926Z,5.15
2022-09-16T15:32:58.256Z,5.25
2022-09-16T15:35:24.590Z,5.22
2022-09-16T15:37:50.907Z,5.17
2022-09-16T15:40:17.281Z,4.77
2022-09-16T15:42:43.656Z,5.10
2022-09-16T15:45:10.001Z,5.23
2022-09-16T15:47:36.334Z,5.24
2022-09-16T15:50:02.662Z,5.28
2022-09-16T15:52:29.001Z,5.45
2022-09-16T15:54:55.325Z,5.08
2022-09-16T15:57:21.653Z,5.48
2022-09-16T15:59:47.993Z,5.41
2022-09-16T16:02:14.349Z,5.58
2022-09-16T16:04:40.697Z,5.54
2022-09-16T16:07:07.029Z,5.38
2022-09-16T16:09:33.361Z,5.67
2022-09-16T16:11:59.686Z,5.69
2022-09-16T16:14:26.017Z,5.65
2022-09-16T16:17:11.891Z,5.40
2022-09-16T16:19:38.669Z,5.59
2022-09-16T16:22:06.343Z,5.87
2022-09-16T16:24:32.871Z,5.19
2022-09-16T16:26:59.192Z,5.36
2022-09-16T16:29:25.509Z,5.36
2022-09-16T16:31:51.842Z,5.47
2022-09-16T16:34:18.172Z,5.58
2022-09-16T16:36:44.523Z,5.60
2022-09-16T16:39:10.867Z,5.28
2022-09-16T16:41:37.209Z,5.68
2022-09-16T16:44:03.531Z,5.10
2022-09-16T16:46:29.918Z,5.62
2022-09-16T16:48:56.311Z,5.38
2022-09-16T16:51:22.650Z,5.51
2022-09-16T16:53:49.103Z,5.24
2022-09-16T16:56:15.850Z,5.22
2022-09-16T16:58:42.207Z,5.20
2022-09-16T17:01:08.637Z,5.25
2022-09-16T17:03:35.032Z,5.17
2022-09-16T17:06:01.350Z,5.17
2022-09-16T17:08:27.670Z,5.22
2022-09-16T17:10:53.988Z,5.21
2022-09-16T17:13:20.306Z,5.13
2022-09-16T17:15:46.671Z,5.31
2022-09-16T17:18:13.040Z,5.58
2022-09-16T17:20:39.359Z,5.32
2022-09-16T17:23:05.684Z,5.19
2022-09-16T17:25:32.020Z,4.93
2022-09-16T17:27:58.342Z,4.90
2022-09-16T17:30:24.644Z,5.07
2022-09-16T17:32:50.977Z,5.20
2022-09-16T17:35:17.309Z,5.21
2022-09-16T17:37:43.624Z,5.41
2022-09-16T17:40:10.045Z,5.37
2022-09-16T17:42:36.436Z,5.20
2022-09-16T17:45:02.761Z,5.27
2022-09-16T17:47:29.088Z,5.21
2022-09-16T17:49:55.395Z,5.20
2022-09-16T17:52:21.717Z,5.30
2022-09-16T17:54:48.048Z,5.47
2022-09-16T17:57:14.362Z,4.96
2022-09-16T17:59:40.676Z,5.01
2022-09-16T18:02:07.002Z,4.97
2022-09-16T18:04:33.342Z,5.13
2022-09-16T18:06:59.680Z,4.96
2022-09-16T18:09:26.007Z,5.06
2022-09-16T18:11:52.331Z,5.09
2022-09-16T18:14:23.103Z,4.76
2022-09-16T18:16:49.910Z,4.84
2022-09-16T18:19:16.283Z,5.04
2022-09-16T18:21:42.620Z,4.80
2022-09-16T18:24:08.960Z,4.49
2022-09-16T18:26:35.302Z,4.46
2022-09-16T18:29:10.376Z,4.48
2022-09-16T18:31:37.748Z,4.43
2022-09-16T18:34:04.081Z,4.21
2022-09-16T18:36:30.420Z,4.12
2022-09-16T18:38:56.856Z,3.95
2022-09-16T18:41:23.239Z,4.21
2022-09-16T18:43:49.558Z,4.64
2022-09-16T18:46:15.936Z,4.21
2022-09-16T18:48:42.285Z,4.56
2022-09-16T18:51:08.622Z,4.66
2022-09-16T18:53:34.955Z,4.50
2022-09-16T18:56:01.291Z,4.27
2022-09-16T18:58:27.627Z,4.22
2022-09-16T19:00:53.993Z,4.20
2022-09-16T19:03:20.365Z,3.92
2022-09-16T19:05:46.706Z,4.07
2022-09-16T19:08:13.020Z,3.94
2022-09-16T19:10:39.355Z,3.81
2022-09-16T19:13:05.689Z,3.78
2022-09-16T19:15:32.021Z,3.74
2022-09-16T19:17:58.422Z,3.69
2022-09-16T19:20:24.815Z,3.63
2022-09-16T19:22:51.140Z,3.54
2022-09-16T19:25:17.459Z,3.44
2022-09-16T19:27:43.786Z,3.57
2022-09-16T19:30:10.128Z,3.58
2022-09-16T19:32:36.490Z,3.37
2022-09-16T19:35:02.889Z,3.49
2022-09-16T19:37:29.230Z,3.45
2022-09-16T19:39:55.581Z,3.50
2022-09-16T19:42:21.952Z,3.52
2022-09-16T19:44:48.284Z,3.50
2022-09-16T19:47:14.606Z,3.23
2022-09-16T19:49:40.937Z,3.15
2022-09-16T19:52:07.260Z,3.05
2022-09-16T19:54:33.584Z,2.96
2022-09-16T19:56:59.899Z,3.32
2022-09-16T19:59:26.225Z,3.32
2022-09-16T20:01:52.574Z,3.23
2022-09-16T20:04:18.901Z,3.12
2022-09-16T20:06:45.241Z,3.35
2022-09-16T20:09:11.692Z,3.49
2022-09-16T20:11:38.043Z,3.56
2022-09-16T20:14:04.376Z,3.38
2022-09-16T20:16:30.831Z,3.48
2022-09-16T20:18:57.251Z,3.43
2022-09-16T20:21:23.637Z,3.23
2022-09-16T20:23:50.001Z,3.32
2022-09-16T20:26:16.315Z,3.60
2022-09-16T20:28:42.648Z,3.38
2022-09-16T20:31:09.034Z,3.36
2022-09-16T20:33:35.401Z,3.33
2022-09-16T20:36:01.731Z,3.39
2022-09-16T20:38:28.210Z,3.43
2022-09-16T20:40:54.709Z,3.44
2022-09-16T20:43:21.227Z,3.19
2022-09-16T20:45:47.865Z,3.01
2022-09-16T20:48:14.414Z,3.02
2022-09-16T20:50:40.953Z,3.17
2022-09-16T20:53:07.401Z,3.26
2022-09-16T20:55:33.822Z,3.20
2022-09-16T20:58:00.444Z,3.03
2022-09-16T21:00:27.143Z,2.85
2022-09-16T21:02:53.859Z,3.08
2022-09-16T21:05:20.297Z,2.92
2022-09-16T21:07:46.729Z,2.73
2022-09-16T21:10:13.108Z,3.02
2022-09-16T21:12:39.457Z,3.09
2022-09-16T21:15:05.798Z,2.88
2022-09-16T21:17:32.154Z,2.82
2022-09-16T21:19:58.471Z,3.02
2022-09-16T21:22:24.783Z,2.90
2022-09-16T21:24:51.104Z,3.14
2022-09-16T21:27:17.436Z,3.18
2022-09-16T21:29:43.765Z,3.21
2022-09-16T21:32:10.083Z,3.09
2022-09-16T21:34:36.393Z,3.19
2022-09-16T21:37:02.726Z,3.26
2022-09-16T21:39:29.060Z,3.07
2022-09-16T21:41:55.390Z,3.01
2022-09-16T21:44:21.728Z,3.40
2022-09-16T21:46:48.115Z,3.28
2022-09-16T21:49:14.495Z,3.18
2022-09-16T21:51:40.807Z,3.09
2022-09-16T21:54:07.145Z,2.79
2022-09-16T21:56:33.482Z,2.56
2022-09-16T21:58:59.804Z,2.68
2022-09-16T22:01:26.184Z,2.68
2022-09-16T22:03:52.544Z,2.34
2022-09-16T22:06:18.864Z,2.46
2022-09-16T22:08:48.775Z,2.31
2022-09-16T22:11:15.364Z,2.26
2022-09-16T22:13:41.689Z,2.35
2022-09-16T22:16:08.053Z,2.09
2022-09-16T22:18:34.410Z,2.21
2022-09-16T22:21:00.745Z,2.16
2022-09-16T22:23:27.067Z,2.11
2022-09-16T22:25:53.390Z,2.06
2022-09-16T22:28:19.728Z,2.17
2022-09-16T22:30:46.047Z,2.14
2022-09-16T22:33:12.364Z,2.09
2022-09-16T22:35:38.676Z,2.11
2022-09-16T22:38:05.012Z,2.12
2022-09-16T22:40:31.402Z,2.05
2022-09-16T22:42:57.757Z,2.00
2022-09-16T22:45:24.098Z,2.18
2022-09-16T22:47:50.432Z,2.06
2022-09-16T22:50:16.767Z,2.10
2022-09-16T22:52:43.091Z,2.11
2022-09-16T22:55:09.413Z,2.26
2022-09-16T22:57:36.529Z,2.27
2022-09-16T23:00:02.856Z,2.28
2022-09-16T23:02:29.176Z,2.49
2022-09-16T23:04:55.504Z,2.35
2022-09-16T23:07:21.833Z,2.53
2022-09-16T23:09:48.176Z,2.57
2022-09-16T23:12:14.504Z,2.54
2022-09-16T23:14:40.838Z,2.52
2022-09-16T23:17:07.157Z,2.45
2022-09-16T23:19:33.509Z,2.76
2022-09-16T23:21:59.840Z,2.46
2022-09-16T23:24:26.169Z,2.57
2022-09-16T23:26:52.497Z,2.61
2022-09-16T23:29:18.823Z,2.84
2022-09-16T23:31:45.209Z,2.73
2022-09-16T23:34:11.566Z,2.76
2022-09-16T23:36:37.961Z,2.78
2022-09-16T23:39:04.320Z,2.71
2022-09-16T23:41:30.649Z,2.76
2022-09-16T23:43:56.972Z,2.64
2022-09-16T23:46:23.372Z,2.58
2022-09-16T23:48:49.731Z,2.80
2022-09-16T23:51:16.136Z,2.60
2022-09-16T23:53:42.633Z,2.92
2022-09-16T23:56:08.991Z,2.63
2022-09-16T23:58:35.339Z,2.55
